createdAt,value
2022-07-29T00:05:00.907Z,75.57
2022-07-29T00:10:09.112Z,77.03
2022-07-29T00:15:14.403Z,77.29
2022-07-29T00:20:19.624Z,77.97
2022-07-29T00:25:27.388Z,79.05
2022-07-29T00:30:32.518Z,79.43
2022-07-29T00:35:49.649Z,79.92
2022-07-29T00:40:57.298Z,80.56
2022-07-29T00:46:02.560Z,80.83
2022-07-29T00:51:08.930Z,81.35
2022-07-29T00:56:16.847Z,81.15
2022-07-29T01:01:21.860Z,84.28
2022-07-29T01:06:28.719Z,84.39
2022-07-29T01:11:37.844Z,85.75
2022-07-29T01:16:54.790Z,85.09
2022-07-29T01:22:03.009Z,86.67
2022-07-29T01:27:29.342Z,87.83
2022-07-29T01:32:40.990Z,89.19
2022-07-29T01:37:50.988Z,89.63
2022-07-29T01:43:01.063Z,90.70
2022-07-29T01:48:15.792Z,92.70
2022-07-29T01:53:29.724Z,94.65
2022-07-29T01:58:45.821Z,96.61
2022-07-29T02:03:54.573Z,99.00
2022-07-29T02:09:00.423Z,100.00
2022-07-29T02:14:06.359Z,100.00
2022-07-29T02:19:15.570Z,100.00
2022-07-29T02:24:22.901Z,100.00
2022-07-29T02:29:30.286Z,100.00
2022-07-29T02:34:39.868Z,100.00
2022-07-29T02:39:47.931Z,100.00
2022-07-29T02:44:53.360Z,100.00
2022-07-29T02:50:06.328Z,100.00
2022-07-29T02:55:18.842Z,100.00
2022-07-29T03:00:25.643Z,100.00
2022-07-29T03:05:33.858Z,100.00
2022-07-29T03:10:41.334Z,100.00
2022-07-29T03:15:48.319Z,100.00
2022-07-29T03:20:56.073Z,100.00
2022-07-29T03:26:01.299Z,100.00
2022-07-29T03:31:06.686Z,100.00
2022-07-29T03:36:16.637Z,100.00
2022-07-29T03:41:24.012Z,100.00
2022-07-29T03:46:32.657Z,100.00
2022-07-29T03:51:40.636Z,100.00
2022-07-29T03:56:49.676Z,100.00
2022-07-29T04:01:55.701Z,100.00
2022-07-29T04:07:04.180Z,100.00
2022-07-29T04:12:10.271Z,100.00
2022-07-29T04:17:15.179Z,100.00
2022-07-29T04:22:23.022Z,100.00
2022-07-29T04:27:28.204Z,100.00
2022-07-29T04:32:33.639Z,100.00
2022-07-29T04:37:42.100Z,100.00
2022-07-29T04:42:47.924Z,100.00
2022-07-29T04:47:54.677Z,100.00
2022-07-29T04:53:02.450Z,100.00
2022-07-29T04:58:07.324Z,100.00
2022-07-29T05:03:12.722Z,100.00
2022-07-29T05:08:20.361Z,100.00
2022-07-29T05:13:25.341Z,100.00
2022-07-29T05:18:30.667Z,100.00
2022-07-29T05:23:38.492Z,100.00
2022-07-29T05:28:44.557Z,100.00
2022-07-29T05:33:50.486Z,100.00
2022-07-29T05:38:58.019Z,100.00
2022-07-29T05:44:03.551Z,100.00
2022-07-29T05:49:08.778Z,100.00
2022-07-29T05:54:16.787Z,100.00
2022-07-29T05:59:24.922Z,100.00
2022-07-29T06:04:32.578Z,100.00
2022-07-29T06:09:40.356Z,100.00
2022-07-29T06:14:45.767Z,100.00
2022-07-29T06:19:50.914Z,100.00
2022-07-29T06:24:59.212Z,100.00
2022-07-29T06:30:05.398Z,100.00
2022-07-29T06:35:37.906Z,100.00
2022-07-29T06:40:52.242Z,100.00
2022-07-29T06:45:57.883Z,100.00
2022-07-29T06:51:04.182Z,100.00
2022-07-29T06:56:13.916Z,100.00
2022-07-29T07:01:19.225Z,100.00
2022-07-29T07:06:24.351Z,100.00
2022-07-29T07:11:32.439Z,100.00
2022-07-29T07:16:37.604Z,100.00
2022-07-29T07:21:42.602Z,100.00
2022-07-29T07:26:50.810Z,100.00
2022-07-29T07:32:00.492Z,100.00
2022-07-29T07:37:06.708Z,100.00
2022-07-29T07:42:14.282Z,98.30
2022-07-29T07:47:21.441Z,95.41
2022-07-29T07:52:27.625Z,92.70
2022-07-29T07:57:36.120Z,92.17
2022-07-29T08:02:41.104Z,87.67
2022-07-29T08:07:46.093Z,85.01
2022-07-29T08:12:54.165Z,83.23
2022-07-29T08:17:59.103Z,79.17
2022-07-29T08:23:04.837Z,79.13
2022-07-29T08:28:12.823Z,76.89
2022-07-29T08:33:18.319Z,77.57
2022-07-29T08:38:23.162Z,77.79
2022-07-29T08:43:31.640Z,75.02
2022-07-29T08:48:37.762Z,75.80
2022-07-29T08:53:46.328Z,72.82
2022-07-29T08:58:54.700Z,71.23
2022-07-29T09:04:02.986Z,68.25
2022-07-29T09:09:08.303Z,67.22
2022-07-29T09:14:17.171Z,65.62
2022-07-29T09:19:27.192Z,63.75
2022-07-29T09:24:42.329Z,60.65
2022-07-29T09:29:50.173Z,58.76
2022-07-29T09:34:58.424Z,58.43
2022-07-29T09:40:14.858Z,55.92
2022-07-29T09:45:33.634Z,54.56
2022-07-29T09:50:43.230Z,53.43
2022-07-29T09:55:52.559Z,52.38
2022-07-29T10:01:01.265Z,50.21
2022-07-29T10:06:11.201Z,47.69
2022-07-29T10:11:20.937Z,47.87
2022-07-29T10:16:33.902Z,45.71
2022-07-29T10:21:40.909Z,46.13
2022-07-29T10:26:47.339Z,44.14
2022-07-29T10:32:11.453Z,42.43
2022-07-29T10:37:24.053Z,43.59
2022-07-29T10:42:34.251Z,43.39
2022-07-29T10:47:42.130Z,40.96
2022-07-29T10:52:58.639Z,42.43
2022-07-29T10:58:20.643Z,41.79
2022-07-29T11:03:52.466Z,42.60
2022-07-29T11:09:34.921Z,42.80
2022-07-29T11:15:00.395Z,42.24
2022-07-29T11:20:40.766Z,42.67
2022-07-29T11:25:52.265Z,42.73
2022-07-29T11:30:58.059Z,43.09
2022-07-29T11:36:16.929Z,41.33
2022-07-29T11:41:37.092Z,41.54
2022-07-29T11:46:50.933Z,41.42
2022-07-29T11:51:56.655Z,42.53
2022-07-29T11:57:05.620Z,41.71
2022-07-29T12:02:37.220Z,41.71
2022-07-29T12:07:37.924Z,41.64
2022-07-29T12:12:45.706Z,41.27
2022-07-29T12:17:53.824Z,40.92
2022-07-29T12:23:00.076Z,41.38
2022-07-29T12:28:09.523Z,42.17
2022-07-29T12:33:24.451Z,42.12
2022-07-29T12:38:29.599Z,42.80
2022-07-29T12:43:37.644Z,42.95
2022-07-29T12:48:44.427Z,43.12
2022-07-29T12:54:08.706Z,43.12
2022-07-29T12:59:21.571Z,43.69
2022-07-29T13:04:30.824Z,43.87
2022-07-29T13:09:43.067Z,43.72
2022-07-29T13:14:52.034Z,43.29
2022-07-29T13:20:10.400Z,43.88
2022-07-29T13:25:15.474Z,43.76
2022-07-29T13:30:23.083Z,44.17
2022-07-29T13:35:30.873Z,44.72
2022-07-29T13:40:36.825Z,44.81
2022-07-29T13:45:44.445Z,44.74
2022-07-29T13:50:49.557Z,45.21
2022-07-29T13:55:55.049Z,45.87
2022-07-29T14:01:03.516Z,52.61
2022-07-29T14:06:08.806Z,56.00
2022-07-29T14:11:13.736Z,58.54
2022-07-29T14:16:21.369Z,60.73
2022-07-29T14:21:26.398Z,62.64
2022-07-29T14:26:31.413Z,63.63
2022-07-29T14:31:40.190Z,65.66
2022-07-29T14:36:45.571Z,66.76
2022-07-29T14:41:50.524Z,67.67
2022-07-29T14:46:58.048Z,70.20
2022-07-29T14:52:03.104Z,67.53
2022-07-29T14:57:07.963Z,64.23
2022-07-29T15:02:15.510Z,61.92
2022-07-29T15:07:20.873Z,61.36
2022-07-29T15:12:25.899Z,60.79
2022-07-29T15:17:33.467Z,60.31
2022-07-29T15:22:39.224Z,60.80
2022-07-29T15:27:48.974Z,59.21
2022-07-29T15:33:00.531Z,56.60
2022-07-29T15:38:05.770Z,54.95
2022-07-29T15:43:11.053Z,52.59
2022-07-29T15:48:18.595Z,50.96
2022-07-29T15:53:23.585Z,50.72
2022-07-29T15:58:28.501Z,49.55
2022-07-29T16:03:36.294Z,48.45
2022-07-29T16:08:41.544Z,47.70
2022-07-29T16:13:46.486Z,46.89
2022-07-29T16:18:53.927Z,45.57
2022-07-29T16:23:59.184Z,45.07
2022-07-29T16:29:04.253Z,44.49
2022-07-29T16:34:13.742Z,43.79
2022-07-29T16:39:20.624Z,44.42
2022-07-29T16:44:27.519Z,44.43
2022-07-29T16:49:35.318Z,45.08
2022-07-29T16:54:41.219Z,45.28
2022-07-29T16:59:46.369Z,45.75
2022-07-29T17:04:54.106Z,46.53
2022-07-29T17:10:03.401Z,47.21
2022-07-29T17:15:11.731Z,47.88
2022-07-29T17:20:19.322Z,47.65
2022-07-29T17:25:24.900Z,48.69
2022-07-29T17:30:30.103Z,49.59
2022-07-29T17:35:50.154Z,50.75
2022-07-29T17:40:55.361Z,51.41
2022-07-29T17:46:00.391Z,52.41
2022-07-29T17:51:08.242Z,53.43
2022-07-29T17:56:17.164Z,53.80
2022-07-29T18:01:26.148Z,55.21
2022-07-29T18:06:33.968Z,55.69
2022-07-29T18:11:39.245Z,56.92
2022-07-29T18:16:49.662Z,57.20
2022-07-29T18:21:59.315Z,58.45
2022-07-29T18:27:10.296Z,59.88
2022-07-29T18:32:15.303Z,61.83
2022-07-29T18:38:01.346Z,62.98
2022-07-29T18:42:48.073Z,64.21
2022-07-29T18:47:53.128Z,65.04
2022-07-29T18:53:03.495Z,67.02
2022-07-29T18:58:08.544Z,68.89
2022-07-29T19:03:13.766Z,69.41
2022-07-29T19:08:21.666Z,71.32
2022-07-29T19:13:26.719Z,72.21
2022-07-29T19:18:31.880Z,74.43
2022-07-29T19:24:03.810Z,76.94
2022-07-29T19:29:05.224Z,78.95
2022-07-29T19:34:10.288Z,81.39
2022-07-29T19:39:18.279Z,85.55
2022-07-29T19:44:40.078Z,86.75
2022-07-29T19:49:45.176Z,89.92
2022-07-29T19:54:53.233Z,93.74
2022-07-29T19:59:58.260Z,93.44
2022-07-29T20:05:03.453Z,100.00
2022-07-29T20:10:13.122Z,100.00
2022-07-29T20:15:18.159Z,100.00
2022-07-29T20:20:23.872Z,100.00
2022-07-29T20:25:31.453Z,100.00
2022-07-29T20:30:38.537Z,100.00
2022-07-29T20:35:43.929Z,100.00
2022-07-29T20:40:53.210Z,100.00
2022-07-29T20:45:58.353Z,100.00
2022-07-29T20:51:03.356Z,100.00
2022-07-29T20:56:12.668Z,100.00
2022-07-29T21:01:17.933Z,100.00
2022-07-29T21:06:22.965Z,100.00
2022-07-29T21:11:44.726Z,100.00
2022-07-29T21:16:50.443Z,100.00
2022-07-29T21:21:55.605Z,100.00
2022-07-29T21:27:20.918Z,100.00
2022-07-29T21:32:29.660Z,100.00
2022-07-29T21:37:35.577Z,100.00
2022-07-29T21:42:43.911Z,100.00
2022-07-29T21:47:50.425Z,100.00
2022-07-29T21:52:56.004Z,100.00
2022-07-29T21:58:04.066Z,100.00
2022-07-29T22:03:09.047Z,100.00
2022-07-29T22:08:14.182Z,100.00
2022-07-29T22:13:22.056Z,100.00
2022-07-29T22:18:26.921Z,100.00
2022-07-29T22:23:32.702Z,100.00
2022-07-29T22:28:40.595Z,100.00
2022-07-29T22:33:47.729Z,100.00
2022-07-29T22:38:52.913Z,100.00
2022-07-29T22:44:00.699Z,100.00
2022-07-29T22:49:05.887Z,100.00
2022-07-29T22:54:10.975Z,100.00
2022-07-29T22:59:19.199Z,100.00
2022-07-29T23:04:24.280Z,100.00
2022-07-29T23:09:30.597Z,100.00
2022-07-29T23:14:38.301Z,100.00
2022-07-29T23:19:43.549Z,100.00
2022-07-29T23:24:50.623Z,100.00
2022-07-29T23:29:58.132Z,100.00
2022-07-29T23:35:05.496Z,100.00
2022-07-29T23:40:14.769Z,100.00
2022-07-29T23:45:22.553Z,100.00
2022-07-29T23:50:45.100Z,100.00
2022-07-29T23:55:50.700Z,100.00
